アムステルダム/スキポール の空港の天気 - METARとTAF

スキポール空港(アムステルダム) ( EHAM / AMS ) - オランダ アムステルダム
飛行場実況気象(Metar)
観測時間03/30 14:25 CEST (03/30 12:25 UTC)
風向・風速南南西 7m/s
視程10km以上
天気現象
なし
気温20℃
湿度53%
気圧1022hPa
METAREHAM 301225Z 21013KT CAVOK 20/10 Q1022 NOSIG
過去の天気等 Google飛行場航空写真 Wunderground天気予報

過去48時間のMETAR

飛行場予報(TAF)
発表時間: 3/30 13:01 CEST (3/30 11:01 UTC)
予報対象時間: 30日14時 CEST ~ 31日20時 CEST
風向・風速南西 7m/s
視程10km以上
なし
30日18時 CEST ~ 30日20時 CEST に徐々に
風向・風速南 4m/s
31日11時 CEST ~ 31日14時 CEST に徐々に
風向・風速南南西 6m/s
31日14時 CEST ~ 31日17時 CEST に徐々に
風向・風速西 6m/s 瞬間風速 11m/s
31日17時 CEST ~ 31日20時 CEST に徐々に
風向・風速西 4m/s
TAF EHAM 301101Z 3012/3118 22013KT CAVOK
BECMG 3016/3018 17007KT
BECMG 3109/3112 20011KT
BECMG 3112/3115 27012G22KT
BECMG 3115/3118 27007KT